createdAt,value
2022-08-18T00:01:16.796Z,4.60
2022-08-18T00:03:57.023Z,4.75
2022-08-18T00:06:15.152Z,5.07
2022-08-18T00:08:38.303Z,4.10
2022-08-18T00:10:58.838Z,4.53
2022-08-18T00:13:17.102Z,4.15
2022-08-18T00:15:41.503Z,4.70
2022-08-18T00:18:06.824Z,4.72
2022-08-18T00:20:25.650Z,4.30
2022-08-18T00:22:44.811Z,4.57
2022-08-18T00:25:03.120Z,4.68
2022-08-18T00:27:23.447Z,4.32
2022-08-18T00:29:41.894Z,4.20
2022-08-18T00:31:59.881Z,4.57
2022-08-18T00:34:18.377Z,5.03
2022-08-18T00:36:37.086Z,5.25
2022-08-18T00:38:55.499Z,4.60
2022-08-18T00:41:13.883Z,4.28
2022-08-18T00:43:45.602Z,4.72
2022-08-18T00:46:03.817Z,5.13
2022-08-18T00:48:23.827Z,4.80
2022-08-18T00:50:52.551Z,4.93
2022-08-18T00:53:14.118Z,5.07
2022-08-18T00:55:33.661Z,4.53
2022-08-18T00:57:53.855Z,4.47
2022-08-18T01:00:13.380Z,4.43
2022-08-18T01:02:34.694Z,4.53
2022-08-18T01:05:01.080Z,4.40
2022-08-18T01:07:21.665Z,4.50
2022-08-18T01:09:40.680Z,4.72
2022-08-18T01:11:58.719Z,4.55
2022-08-18T01:14:18.436Z,4.80
2022-08-18T01:16:57.551Z,4.03
2022-08-18T01:19:34.968Z,4.93
2022-08-18T01:21:55.184Z,4.50
2022-08-18T01:24:15.537Z,4.45
2022-08-18T01:26:38.082Z,4.25
2022-08-18T01:29:11.744Z,4.82
2022-08-18T01:31:39.631Z,4.70
2022-08-18T01:34:12.125Z,4.65
2022-08-18T01:36:30.270Z,4.85
2022-08-18T01:38:50.606Z,4.63
2022-08-18T01:41:28.885Z,5.25
2022-08-18T01:43:46.474Z,4.82
2022-08-18T01:46:09.090Z,4.32
2022-08-18T01:48:27.412Z,4.50
2022-08-18T01:50:50.356Z,4.63
2022-08-18T01:53:09.182Z,5.13
2022-08-18T01:55:28.691Z,4.90
2022-08-18T01:57:47.252Z,5.10
2022-08-18T02:00:06.561Z,4.90
2022-08-18T02:02:32.994Z,4.65
2022-08-18T02:04:53.344Z,4.90
2022-08-18T02:07:12.636Z,4.82
2022-08-18T02:09:31.469Z,5.00
2022-08-18T02:11:49.642Z,5.10
2022-08-18T02:14:10.909Z,4.95
2022-08-18T02:16:30.139Z,4.72
2022-08-18T02:18:48.943Z,5.07
2022-08-18T02:21:11.865Z,5.05
2022-08-18T02:23:29.764Z,4.93
2022-08-18T02:25:47.537Z,4.80
2022-08-18T02:28:06.241Z,4.90
2022-08-18T02:30:24.304Z,4.80
2022-08-18T02:32:42.907Z,5.03
2022-08-18T02:35:01.394Z,5.57
2022-08-18T02:37:19.552Z,5.03
2022-08-18T02:39:38.349Z,4.90
2022-08-18T02:41:56.425Z,5.57
2022-08-18T02:44:16.611Z,5.15
2022-08-18T02:46:34.574Z,5.00
2022-08-18T02:48:53.271Z,6.20
2022-08-18T02:51:15.334Z,5.95
2022-08-18T02:53:34.586Z,5.63
2022-08-18T02:55:53.850Z,5.50
2022-08-18T02:58:13.363Z,5.32
2022-08-18T03:00:31.257Z,5.75
2022-08-18T03:02:50.815Z,5.80
2022-08-18T03:05:10.859Z,5.95
2022-08-18T03:07:32.891Z,5.47
2022-08-18T03:09:50.864Z,5.50
2022-08-18T03:12:09.751Z,5.70
2022-08-18T03:14:28.340Z,5.32
2022-08-18T03:16:54.073Z,5.45
2022-08-18T03:19:16.929Z,5.65
2022-08-18T03:21:38.169Z,5.50
2022-08-18T03:24:00.886Z,5.32
2022-08-18T03:26:21.342Z,6.00
2022-08-18T03:28:41.115Z,5.53
2022-08-18T03:30:58.954Z,5.85
2022-08-18T03:33:17.097Z,5.50
2022-08-18T03:35:36.979Z,5.47
2022-08-18T03:37:55.962Z,6.22
2022-08-18T03:40:13.959Z,6.18
2022-08-18T03:42:32.270Z,5.88
2022-08-18T03:44:50.400Z,6.15
2022-08-18T03:47:09.052Z,5.68
2022-08-18T03:49:28.519Z,5.57
2022-08-18T03:51:47.243Z,6.07
2022-08-18T03:54:06.388Z,5.63
2022-08-18T03:56:26.000Z,6.35
2022-08-18T03:58:45.919Z,5.75
2022-08-18T04:01:04.344Z,6.15
2022-08-18T04:03:24.187Z,6.25
2022-08-18T04:05:42.911Z,5.97
2022-08-18T04:08:01.192Z,6.25
2022-08-18T04:10:19.940Z,6.13
2022-08-18T04:12:39.918Z,6.10
2022-08-18T04:14:57.885Z,5.80
2022-08-18T04:17:16.082Z,6.18
2022-08-18T04:19:35.209Z,6.35
2022-08-18T04:21:54.093Z,6.88
2022-08-18T04:24:13.072Z,6.03
2022-08-18T04:26:31.894Z,6.15
2022-08-18T04:28:49.793Z,6.45
2022-08-18T04:31:10.306Z,6.40
2022-08-18T04:33:28.599Z,6.93
2022-08-18T04:35:47.146Z,6.88
2022-08-18T04:38:05.141Z,6.75
2022-08-18T04:40:25.270Z,6.50
2022-08-18T04:42:45.072Z,6.70
2022-08-18T04:45:02.969Z,7.07
2022-08-18T04:47:21.274Z,7.07
2022-08-18T04:49:39.601Z,6.85
2022-08-18T04:52:37.897Z,6.82
2022-08-18T04:54:54.385Z,6.53
2022-08-18T04:57:13.655Z,6.90
2022-08-18T04:59:32.080Z,6.50
2022-08-18T05:01:49.937Z,7.45
2022-08-18T05:04:08.214Z,7.15
2022-08-18T05:06:27.112Z,6.95
2022-08-18T05:08:45.559Z,7.78
2022-08-18T05:11:04.280Z,7.53
2022-08-18T05:13:22.436Z,7.35
2022-08-18T05:16:07.133Z,7.18
2022-08-18T05:18:22.186Z,6.75
2022-08-18T05:20:40.992Z,7.07
2022-08-18T05:23:01.222Z,6.82
2022-08-18T05:25:19.154Z,7.53
2022-08-18T05:27:39.037Z,7.85
2022-08-18T05:29:57.406Z,7.30
2022-08-18T05:32:37.205Z,8.00
2022-08-18T05:34:54.234Z,7.68
2022-08-18T05:37:24.005Z,7.40
2022-08-18T05:40:11.397Z,8.05
2022-08-18T05:42:31.689Z,7.20
2022-08-18T05:44:51.541Z,7.90
2022-08-18T05:47:13.972Z,7.22
2022-08-18T05:49:32.422Z,7.28
2022-08-18T05:51:53.468Z,7.28
2022-08-18T05:54:30.685Z,7.85
2022-08-18T05:56:51.177Z,7.82
2022-08-18T05:59:10.703Z,7.80
2022-08-18T06:01:41.815Z,7.50
2022-08-18T06:04:06.882Z,7.82
2022-08-18T06:06:30.924Z,7.82
2022-08-18T06:09:11.978Z,8.13
2022-08-18T06:11:30.234Z,7.93
2022-08-18T06:13:48.135Z,7.93
2022-08-18T06:16:20.470Z,8.90
2022-08-18T06:18:38.426Z,8.40
2022-08-18T06:21:02.611Z,8.50
2022-08-18T06:23:32.408Z,7.85
2022-08-18T06:25:56.608Z,8.48
2022-08-18T06:28:16.757Z,8.38
2022-08-18T06:30:37.811Z,7.90
2022-08-18T06:32:57.037Z,7.75
2022-08-18T06:35:34.048Z,7.35
2022-08-18T06:38:16.515Z,7.28
2022-08-18T06:40:34.472Z,7.32
2022-08-18T06:42:52.777Z,8.18
2022-08-18T06:45:18.725Z,8.02
2022-08-18T06:47:54.172Z,7.38
2022-08-18T06:50:18.876Z,7.63
2022-08-18T06:52:39.222Z,7.70
2022-08-18T06:55:08.991Z,7.18
2022-08-18T06:57:32.098Z,7.30
2022-08-18T07:00:00.922Z,7.45
2022-08-18T07:02:35.905Z,8.82
2022-08-18T07:05:08.285Z,6.88
2022-08-18T07:07:40.346Z,6.72
2022-08-18T07:09:59.248Z,7.57
2022-08-18T07:12:22.352Z,7.57
2022-08-18T07:14:47.849Z,7.97
2022-08-18T07:17:10.638Z,7.97
2022-08-18T07:19:32.639Z,7.63
2022-08-18T07:22:08.960Z,7.32
2022-08-18T07:24:29.480Z,8.43
2022-08-18T07:27:02.699Z,8.82
2022-08-18T07:29:20.919Z,8.32
2022-08-18T07:31:46.732Z,6.88
2022-08-18T07:34:25.796Z,6.53
2022-08-18T07:36:50.255Z,6.75
2022-08-18T07:39:28.454Z,6.70
2022-08-18T07:41:53.782Z,6.50
2022-08-18T07:44:31.143Z,6.43
2022-08-18T07:46:56.345Z,6.47
2022-08-18T07:49:25.679Z,6.70
2022-08-18T07:51:53.109Z,6.13
2022-08-18T07:54:49.517Z,6.03
2022-08-18T07:57:19.306Z,4.50
2022-08-18T07:59:53.500Z,4.80
2022-08-18T08:02:20.247Z,4.97
2022-08-18T08:05:11.515Z,4.55
2022-08-18T08:07:46.708Z,4.88
2022-08-18T08:10:25.798Z,4.65
2022-08-18T08:12:47.966Z,4.30
2022-08-18T08:15:13.808Z,10.18
2022-08-18T08:17:34.853Z,11.07
2022-08-18T08:20:00.994Z,4.50
2022-08-18T08:22:29.943Z,4.38
2022-08-18T08:25:04.116Z,4.32
2022-08-18T08:27:30.547Z,3.78
2022-08-18T08:29:48.417Z,4.15
2022-08-18T08:32:10.598Z,4.15
2022-08-18T08:34:48.241Z,4.07
2022-08-18T08:37:08.648Z,5.18
2022-08-18T08:39:45.630Z,4.00
2022-08-18T08:42:31.816Z,4.07
2022-08-18T08:45:01.155Z,4.32
2022-08-18T08:47:23.339Z,4.75
2022-08-18T08:50:00.986Z,4.75
2022-08-18T08:52:19.269Z,4.80
2022-08-18T08:54:49.855Z,4.20
2022-08-18T08:57:08.994Z,5.07
2022-08-18T08:59:28.004Z,4.90
2022-08-18T09:02:05.298Z,4.55
2022-08-18T09:04:26.714Z,5.32
2022-08-18T09:06:57.047Z,4.97
2022-08-18T09:09:33.703Z,5.22
2022-08-18T09:12:03.793Z,4.75
2022-08-18T09:14:40.638Z,4.53
2022-08-18T09:17:08.163Z,5.05
2022-08-18T09:19:25.915Z,4.70
2022-08-18T09:21:51.117Z,5.00
2022-08-18T09:24:30.149Z,4.75
2022-08-18T09:27:13.907Z,5.25
2022-08-18T09:29:50.197Z,4.75
2022-08-18T09:32:22.799Z,5.28
2022-08-18T09:34:48.326Z,5.18
2022-08-18T09:37:13.639Z,4.35
2022-08-18T09:39:59.562Z,4.72
2022-08-18T09:42:52.845Z,3.88
2022-08-18T09:45:33.781Z,3.90
2022-08-18T09:47:57.134Z,5.00
2022-08-18T09:50:24.824Z,4.28
2022-08-18T09:52:56.086Z,4.68
2022-08-18T09:55:18.872Z,6.53
2022-08-18T09:57:42.019Z,5.07
2022-08-18T10:00:03.992Z,4.80
2022-08-18T10:02:28.544Z,3.97
2022-08-18T10:04:51.126Z,7.90
2022-08-18T10:07:18.414Z,4.47
2022-08-18T10:09:45.911Z,3.55
2022-08-18T10:12:30.583Z,4.10
2022-08-18T10:15:08.885Z,3.95
2022-08-18T10:17:27.395Z,5.47
2022-08-18T10:19:45.775Z,3.78
2022-08-18T10:22:08.229Z,3.33
2022-08-18T10:24:40.344Z,3.63
2022-08-18T10:27:02.806Z,3.40
2022-08-18T10:29:27.833Z,4.25
2022-08-18T10:31:59.264Z,5.80
2022-08-18T10:34:37.537Z,4.97
2022-08-18T10:37:01.335Z,5.50
2022-08-18T10:39:23.947Z,4.90
2022-08-18T10:44:00.899Z,4.85
2022-08-18T10:46:24.920Z,3.97
2022-08-18T10:48:43.967Z,4.45
2022-08-18T10:54:18.505Z,4.32
2022-08-18T10:56:48.940Z,4.13
2022-08-18T10:59:28.746Z,4.78
2022-08-18T11:02:00.187Z,4.13
2022-08-18T11:04:39.164Z,4.30
2022-08-18T11:07:03.706Z,4.43
2022-08-18T11:09:28.220Z,3.83
2022-08-18T11:11:53.431Z,4.78
2022-08-18T11:14:17.529Z,3.97
2022-08-18T11:16:54.305Z,4.18
2022-08-18T11:19:16.780Z,3.40
2022-08-18T11:24:18.555Z,4.43
2022-08-18T11:26:41.660Z,4.43
2022-08-18T11:29:02.825Z,5.18
2022-08-18T11:31:24.622Z,4.40
2022-08-18T11:33:42.537Z,3.92
2022-08-18T11:36:03.891Z,4.40
2022-08-18T11:38:23.523Z,4.75
2022-08-18T11:43:41.771Z,3.97
2022-08-18T11:46:13.661Z,4.30
2022-08-18T11:48:52.488Z,3.70
2022-08-18T11:51:17.760Z,5.10
2022-08-18T11:53:57.574Z,4.13
2022-08-18T11:56:35.976Z,3.70
2022-08-18T11:58:59.986Z,3.78
2022-08-18T12:01:36.059Z,3.67
2022-08-18T12:04:15.356Z,3.50
2022-08-18T12:06:33.734Z,4.20
2022-08-18T12:08:59.120Z,4.10
2022-08-18T12:11:26.327Z,3.67
2022-08-18T12:13:47.015Z,4.28
2022-08-18T12:16:29.520Z,4.00
2022-08-18T12:18:48.933Z,3.97
2022-08-18T12:21:07.853Z,4.10
2022-08-18T12:23:26.367Z,3.95
2022-08-18T12:25:47.359Z,3.72
2022-08-18T12:28:09.833Z,3.78
2022-08-18T12:30:48.895Z,3.80
2022-08-18T12:33:15.569Z,3.50
2022-08-18T12:35:34.995Z,4.35
2022-08-18T12:37:59.084Z,3.65
2022-08-18T12:40:18.221Z,3.17
2022-08-18T12:42:37.300Z,4.57
2022-08-18T12:44:55.358Z,3.75
2022-08-18T12:47:15.587Z,3.38
2022-08-18T12:49:33.904Z,3.78
2022-08-18T12:51:53.055Z,4.43
2022-08-18T12:54:13.832Z,4.00
2022-08-18T12:56:32.739Z,4.70
2022-08-18T12:58:51.262Z,4.30
2022-08-18T13:01:09.510Z,3.60
2022-08-18T13:03:28.610Z,3.97
2022-08-18T13:05:53.607Z,4.20
2022-08-18T13:08:30.236Z,4.80
2022-08-18T13:10:48.726Z,4.18
2022-08-18T13:13:09.376Z,5.00
2022-08-18T13:15:28.652Z,4.85
2022-08-18T13:17:50.609Z,4.65
2022-08-18T13:20:14.867Z,4.63
2022-08-18T13:22:33.539Z,4.68
2022-08-18T13:24:51.908Z,4.43
2022-08-18T13:27:18.480Z,4.18
2022-08-18T13:29:42.666Z,5.28
2022-08-18T13:32:08.186Z,5.10
2022-08-18T13:34:30.011Z,5.30
2022-08-18T13:36:48.833Z,4.88
2022-08-18T13:39:06.755Z,4.90
2022-08-18T13:43:50.206Z,4.55
2022-08-18T13:46:09.901Z,5.00
2022-08-18T13:48:28.669Z,4.68
2022-08-18T13:50:52.281Z,5.32
2022-08-18T13:53:14.696Z,4.57
2022-08-18T13:55:34.207Z,4.85
2022-08-18T13:57:53.788Z,4.72
2022-08-18T14:00:18.145Z,5.28
2022-08-18T14:02:38.512Z,4.50
2022-08-18T14:04:57.969Z,4.25
2022-08-18T14:07:19.116Z,4.50
2022-08-18T14:09:42.744Z,4.70
2022-08-18T14:12:01.244Z,10.75
2022-08-18T14:14:20.460Z,7.10
2022-08-18T14:16:42.692Z,5.32
2022-08-18T14:19:19.223Z,5.07
2022-08-18T14:22:02.115Z,2.15
2022-08-18T14:24:39.079Z,5.88
2022-08-18T14:26:57.877Z,2.58
2022-08-18T14:29:16.892Z,1.58
2022-08-18T14:31:35.262Z,1.90
2022-08-18T14:33:54.722Z,1.60
2022-08-18T14:36:14.411Z,1.85
2022-08-18T14:38:36.869Z,2.00
2022-08-18T14:40:57.525Z,2.17
2022-08-18T14:43:18.234Z,1.92
2022-08-18T14:45:36.696Z,1.92
2022-08-18T14:47:54.862Z,2.10
2022-08-18T14:50:13.152Z,2.45
2022-08-18T14:52:34.468Z,2.75
2022-08-18T14:54:53.338Z,2.25
2022-08-18T14:57:13.201Z,1.98
2022-08-18T14:59:37.492Z,1.95
2022-08-18T15:01:56.370Z,2.10
2022-08-18T15:04:19.097Z,2.17
2022-08-18T15:06:38.012Z,1.90
2022-08-18T15:08:57.186Z,2.15
2022-08-18T15:11:16.837Z,1.88
2022-08-18T15:13:35.148Z,2.80
2022-08-18T15:15:53.350Z,2.00
2022-08-18T15:18:12.305Z,2.33
2022-08-18T15:20:32.265Z,1.95
2022-08-18T15:23:11.520Z,2.10
2022-08-18T15:25:36.007Z,2.50
2022-08-18T15:27:54.358Z,2.13
2022-08-18T15:30:19.394Z,2.38
2022-08-18T15:32:39.319Z,2.45
2022-08-18T15:34:59.656Z,2.88
2022-08-18T15:37:19.809Z,2.58
2022-08-18T15:39:38.131Z,2.75
2022-08-18T15:41:58.918Z,2.35
2022-08-18T15:44:21.236Z,2.58
2022-08-18T15:46:39.496Z,2.30
2022-08-18T15:48:58.932Z,2.53
2022-08-18T15:51:18.944Z,2.70
2022-08-18T15:53:39.915Z,2.75
2022-08-18T15:55:58.666Z,2.72
2022-08-18T15:58:26.944Z,3.38
2022-08-18T16:00:49.170Z,3.75
2022-08-18T16:03:09.530Z,2.90
2022-08-18T16:05:28.965Z,2.53
2022-08-18T16:07:50.149Z,3.53
2022-08-18T16:10:08.563Z,2.80
2022-08-18T16:12:26.866Z,2.85
2022-08-18T16:14:47.031Z,3.17
2022-08-18T16:17:13.127Z,2.72
2022-08-18T16:19:36.221Z,2.83
2022-08-18T16:21:56.031Z,3.35
2022-08-18T16:24:17.846Z,3.22
2022-08-18T16:26:38.301Z,2.17
2022-08-18T16:28:59.160Z,3.28
2022-08-18T16:31:20.468Z,3.22
2022-08-18T16:33:38.476Z,2.75
2022-08-18T16:35:58.886Z,2.88
2022-08-18T16:38:17.527Z,3.33
2022-08-18T16:40:36.396Z,3.05
2022-08-18T16:42:58.276Z,2.90
2022-08-18T16:45:16.248Z,3.53
2022-08-18T16:47:39.407Z,2.40
2022-08-18T16:49:59.106Z,2.60
2022-08-18T16:52:18.312Z,2.58
2022-08-18T16:54:36.221Z,2.50
2022-08-18T16:56:55.376Z,2.40
2022-08-18T16:59:32.370Z,2.70
2022-08-18T17:02:09.469Z,2.63
2022-08-18T17:04:29.331Z,2.60
2022-08-18T17:06:48.000Z,2.88
2022-08-18T17:09:10.102Z,2.50
2022-08-18T17:11:28.305Z,2.58
2022-08-18T17:13:47.631Z,2.80
2022-08-18T17:16:05.990Z,2.70
2022-08-18T17:18:24.824Z,2.40
2022-08-18T17:20:43.187Z,2.42
2022-08-18T17:23:02.740Z,3.15
2022-08-18T17:25:23.888Z,2.80
2022-08-18T17:27:42.447Z,2.90
2022-08-18T17:30:05.647Z,2.58
2022-08-18T17:32:24.886Z,2.72
2022-08-18T17:34:51.634Z,2.67
2022-08-18T17:37:11.114Z,3.22
2022-08-18T17:39:34.236Z,2.38
2022-08-18T17:42:10.860Z,2.50
2022-08-18T17:44:31.509Z,2.30
2022-08-18T17:46:49.667Z,2.72
2022-08-18T17:49:12.958Z,2.83
2022-08-18T17:51:35.330Z,2.60
2022-08-18T17:53:53.414Z,2.50
2022-08-18T17:56:18.360Z,1.95
2022-08-18T17:58:40.555Z,2.35
2022-08-18T18:00:59.219Z,3.22
2022-08-18T18:03:17.777Z,2.65
2022-08-18T18:05:42.043Z,2.45
2022-08-18T18:08:00.702Z,2.70
2022-08-18T18:10:28.044Z,2.47
2022-08-18T18:12:46.291Z,2.67
2022-08-18T18:15:09.328Z,2.75
2022-08-18T18:17:29.811Z,2.90
2022-08-18T18:19:50.779Z,2.58
2022-08-18T18:22:17.892Z,2.67
2022-08-18T18:24:37.557Z,2.55
2022-08-18T18:26:55.804Z,2.70
2022-08-18T18:29:29.319Z,2.20
2022-08-18T18:32:05.263Z,2.65
2022-08-18T18:34:51.299Z,2.63
2022-08-18T18:37:26.970Z,2.33
2022-08-18T18:39:54.441Z,2.70
2022-08-18T18:42:17.948Z,2.88
2022-08-18T18:44:36.433Z,2.97
2022-08-18T18:47:03.413Z,3.13
2022-08-18T18:49:24.573Z,2.70
2022-08-18T18:51:52.027Z,2.45
2022-08-18T18:54:20.617Z,2.38
2022-08-18T18:56:45.835Z,2.67
2022-08-18T18:59:14.490Z,2.50
2022-08-18T19:02:02.119Z,2.75
2022-08-18T19:04:24.826Z,2.90
2022-08-18T19:09:00.895Z,2.40
2022-08-18T19:11:22.979Z,2.80
2022-08-18T19:13:44.462Z,2.47
2022-08-18T19:16:32.926Z,2.80
2022-08-18T19:18:57.739Z,2.63
2022-08-18T19:22:04.423Z,3.03
2022-08-18T19:24:14.543Z,2.42
2022-08-18T19:26:37.629Z,2.80
2022-08-18T19:29:13.974Z,3.05
2022-08-18T19:31:51.565Z,2.40
2022-08-18T19:34:18.112Z,2.42
2022-08-18T19:36:55.146Z,2.70
2022-08-18T19:39:19.253Z,2.95
2022-08-18T19:41:44.015Z,2.92
2022-08-18T19:44:09.663Z,2.70
2022-08-18T19:46:38.847Z,2.90
2022-08-18T19:49:04.797Z,3.08
2022-08-18T19:51:40.411Z,2.60
2022-08-18T19:53:58.410Z,2.88
2022-08-18T19:56:23.025Z,2.92
2022-08-18T19:59:18.513Z,3.03
2022-08-18T20:01:58.627Z,2.92
2022-08-18T20:04:20.013Z,3.28
2022-08-18T20:06:44.658Z,2.50
2022-08-18T20:09:11.910Z,3.38
2022-08-18T20:11:41.900Z,3.15
2022-08-18T20:14:00.967Z,3.05
2022-08-18T20:16:43.995Z,3.25
2022-08-18T20:19:16.439Z,2.90
2022-08-18T20:21:45.919Z,3.10
2022-08-18T20:24:05.676Z,2.70
2022-08-18T20:26:38.863Z,3.28
2022-08-18T20:28:58.110Z,3.35
2022-08-18T20:31:17.587Z,2.75
2022-08-18T20:33:44.009Z,2.92
2022-08-18T20:36:14.138Z,2.80
2022-08-18T20:38:55.312Z,3.20
2022-08-18T20:41:43.164Z,2.72
2022-08-18T20:44:10.970Z,3.45
2022-08-18T20:46:43.719Z,2.88
2022-08-18T20:49:57.410Z,3.58
2022-08-18T20:52:34.762Z,2.45
2022-08-18T20:58:10.047Z,2.38
2022-08-18T21:00:28.328Z,2.35
2022-08-18T21:02:56.839Z,2.78
2022-08-18T21:05:18.913Z,2.50
2022-08-18T21:08:06.642Z,3.22
2022-08-18T21:10:26.199Z,2.85
2022-08-18T21:12:51.821Z,2.45
2022-08-18T21:15:12.218Z,3.33
2022-08-18T21:17:30.523Z,2.72
2022-08-18T21:19:48.611Z,3.67
2022-08-18T21:22:07.912Z,3.00
2022-08-18T21:24:36.157Z,3.20
2022-08-18T21:27:07.066Z,5.90
2022-08-18T21:29:26.816Z,5.90
2022-08-18T21:32:14.014Z,3.40
2022-08-18T21:34:34.475Z,2.55
2022-08-18T21:36:53.927Z,3.03
2022-08-18T21:39:16.196Z,2.92
2022-08-18T21:41:34.614Z,2.42
2022-08-18T21:43:53.460Z,2.92
2022-08-18T21:46:12.978Z,2.88
2022-08-18T21:48:31.987Z,3.05
2022-08-18T21:50:51.884Z,3.13
2022-08-18T21:53:13.137Z,3.00
2022-08-18T21:55:33.754Z,2.72
2022-08-18T21:58:01.129Z,3.03
2022-08-18T22:00:25.032Z,3.05
2022-08-18T22:02:43.647Z,3.67
2022-08-18T22:05:01.890Z,2.95
2022-08-18T22:07:34.247Z,3.35
2022-08-18T22:10:41.691Z,3.75
2022-08-18T22:13:18.292Z,3.45
2022-08-18T22:15:40.715Z,3.78
2022-08-18T22:17:59.144Z,3.00
2022-08-18T22:20:36.056Z,3.08
2022-08-18T22:23:25.396Z,4.03
2022-08-18T22:25:43.710Z,2.92
2022-08-18T22:28:01.969Z,3.42
2022-08-18T22:30:19.936Z,3.15
2022-08-18T22:32:39.790Z,3.33
2022-08-18T22:34:57.852Z,3.13
2022-08-18T22:37:19.228Z,3.20
2022-08-18T22:39:40.861Z,3.10
2022-08-18T22:41:59.498Z,3.40
2022-08-18T22:44:17.615Z,3.22
2022-08-18T22:46:37.183Z,3.25
2022-08-18T22:48:55.249Z,3.25
2022-08-18T22:51:13.580Z,3.10
2022-08-18T22:53:31.605Z,3.20
2022-08-18T22:55:53.280Z,3.08
2022-08-18T22:58:13.215Z,2.95
2022-08-18T23:00:35.146Z,3.50
2022-08-18T23:02:54.903Z,3.40
2022-08-18T23:05:13.089Z,3.15
2022-08-18T23:07:31.781Z,3.13
2022-08-18T23:09:50.630Z,2.92
2022-08-18T23:12:19.495Z,3.08
2022-08-18T23:14:38.650Z,3.45
2022-08-18T23:16:56.562Z,3.15
2022-08-18T23:19:16.172Z,5.15
2022-08-18T23:21:35.926Z,3.22
2022-08-18T23:23:55.789Z,2.95
2022-08-18T23:26:14.578Z,3.20
2022-08-18T23:28:37.460Z,3.35
2022-08-18T23:30:57.986Z,3.30
2022-08-18T23:33:17.355Z,2.95
2022-08-18T23:35:38.118Z,3.75
2022-08-18T23:37:58.705Z,3.42
2022-08-18T23:40:19.761Z,3.25
2022-08-18T23:42:38.606Z,3.55
2022-08-18T23:45:03.778Z,3.13
2022-08-18T23:47:21.713Z,3.30
2022-08-18T23:49:39.975Z,3.28
2022-08-18T23:51:58.697Z,3.95
2022-08-18T23:54:22.014Z,3.40
2022-08-18T23:56:39.998Z,3.28
2022-08-18T23:59:01.345Z,2.95
